sensor_id;sensor_type;location;lat;lon;timestamp;temperature;humidity
26707;DHT22;14319;49.422;10.934;2023-03-01T00:00:43;-0.80;70.80
26707;DHT22;14319;49.422;10.934;2023-03-01T00:02:46;-0.80;70.60
26707;DHT22;14319;49.422;10.934;2023-03-01T00:04:47;-0.90;70.30
26707;DHT22;14319;49.422;10.934;2023-03-01T00:06:48;-1.10;70.90
26707;DHT22;14319;49.422;10.934;2023-03-01T00:08:49;-1.10;71.20
26707;DHT22;14319;49.422;10.934;2023-03-01T00:10:49;-1.20;71.30
26707;DHT22;14319;49.422;10.934;2023-03-01T00:12:50;-1.20;71.90
26707;DHT22;14319;49.422;10.934;2023-03-01T00:14:50;-1.20;72.00
26707;DHT22;14319;49.422;10.934;2023-03-01T00:16:51;-1.30;73.10
26707;DHT22;14319;49.422;10.934;2023-03-01T00:18:53;-1.40;73.20
26707;DHT22;14319;49.422;10.934;2023-03-01T00:20:55;-1.40;72.70
26707;DHT22;14319;49.422;10.934;2023-03-01T00:22:55;-1.40;72.60
26707;DHT22;14319;49.422;10.934;2023-03-01T00:24:56;-1.40;72.80
26707;DHT22;14319;49.422;10.934;2023-03-01T00:26:57;-1.50;72.70
26707;DHT22;14319;49.422;10.934;2023-03-01T00:28:58;-1.50;72.80
26707;DHT22;14319;49.422;10.934;2023-03-01T00:31:04;-1.40;72.70
26707;DHT22;14319;49.422;10.934;2023-03-01T00:33:05;-1.40;72.50
26707;DHT22;14319;49.422;10.934;2023-03-01T00:35:06;-1.50;72.80
26707;DHT22;14319;49.422;10.934;2023-03-01T00:37:07;-1.50;72.90
26707;DHT22;14319;49.422;10.934;2023-03-01T00:39:11;-1.50;73.10
26707;DHT22;14319;49.422;10.934;2023-03-01T00:41:16;-1.50;73.20
26707;DHT22;14319;49.422;10.934;2023-03-01T00:43:17;-1.50;73.10
26707;DHT22;14319;49.422;10.934;2023-03-01T00:45:17;-1.50;73.20
26707;DHT22;14319;49.422;10.934;2023-03-01T00:47:18;-1.50;73.50
26707;DHT22;14319;49.422;10.934;2023-03-01T00:49:18;-1.40;73.00
26707;DHT22;14319;49.422;10.934;2023-03-01T00:51:25;-1.40;72.40
26707;DHT22;14319;49.422;10.934;2023-03-01T00:53:26;-1.40;73.20
26707;DHT22;14319;49.422;10.934;2023-03-01T00:55:27;-1.40;72.70
26707;DHT22;14319;49.422;10.934;2023-03-01T00:57:28;-1.40;72.80
26707;DHT22;14319;49.422;10.934;2023-03-01T00:59:28;-1.30;72.60
26707;DHT22;14319;49.422;10.934;2023-03-01T01:01:30;-1.30;72.10
26707;DHT22;14319;49.422;10.934;2023-03-01T01:03:31;-1.30;72.60
26707;DHT22;14319;49.422;10.934;2023-03-01T01:05:34;-1.30;71.80
26707;DHT22;14319;49.422;10.934;2023-03-01T01:07:35;-1.30;72.10
26707;DHT22;14319;49.422;10.934;2023-03-01T01:09:36;-1.40;72.30
26707;DHT22;14319;49.422;10.934;2023-03-01T01:11:37;-1.40;72.70
26707;DHT22;14319;49.422;10.934;2023-03-01T01:13:38;-1.30;72.70
26707;DHT22;14319;49.422;10.934;2023-03-01T01:15:40;-1.30;72.30
26707;DHT22;14319;49.422;10.934;2023-03-01T01:17:40;-1.30;72.30
26707;DHT22;14319;49.422;10.934;2023-03-01T01:19:41;-1.30;72.00
26707;DHT22;14319;49.422;10.934;2023-03-01T01:21:42;-1.40;72.70
26707;DHT22;14319;49.422;10.934;2023-03-01T01:23:44;-1.40;72.20
26707;DHT22;14319;49.422;10.934;2023-03-01T01:25:46;-1.30;72.80
26707;DHT22;14319;49.422;10.934;2023-03-01T01:27:46;-1.30;72.00
26707;DHT22;14319;49.422;10.934;2023-03-01T01:29:47;-1.40;71.80
26707;DHT22;14319;49.422;10.934;2023-03-01T01:31:48;-1.50;72.10
26707;DHT22;14319;49.422;10.934;2023-03-01T01:33:49;-1.50;72.40
26707;DHT22;14319;49.422;10.934;2023-03-01T01:35:49;-1.50;72.30
26707;DHT22;14319;49.422;10.934;2023-03-01T01:37:50;-1.60;72.10
26707;DHT22;14319;49.422;10.934;2023-03-01T01:39:50;-1.60;72.30
26707;DHT22;14319;49.422;10.934;2023-03-01T01:41:51;-1.60;72.70
26707;DHT22;14319;49.422;10.934;2023-03-01T01:44:25;-1.50;72.20
26707;DHT22;14319;49.422;10.934;2023-03-01T01:48:41;-1.40;72.90
26707;DHT22;14319;49.422;10.934;2023-03-01T01:50:43;-1.40;71.80
26707;DHT22;14319;49.422;10.934;2023-03-01T01:52:46;-1.40;71.50
26707;DHT22;14319;49.422;10.934;2023-03-01T01:54:56;-1.40;71.70
26707;DHT22;14319;49.422;10.934;2023-03-01T01:57:04;-1.50;71.80
26707;DHT22;14319;49.422;10.934;2023-03-01T01:59:06;-1.50;71.90
26707;DHT22;14319;49.422;10.934;2023-03-01T02:01:07;-1.50;72.10
26707;DHT22;14319;49.422;10.934;2023-03-01T02:03:14;-1.50;72.30
26707;DHT22;14319;49.422;10.934;2023-03-01T02:05:20;-1.50;72.40
26707;DHT22;14319;49.422;10.934;2023-03-01T02:07:24;-1.60;72.40
26707;DHT22;14319;49.422;10.934;2023-03-01T02:09:27;-1.50;72.60
26707;DHT22;14319;49.422;10.934;2023-03-01T02:11:30;-1.30;72.40
26707;DHT22;14319;49.422;10.934;2023-03-01T02:13:33;-1.20;71.80
26707;DHT22;14319;49.422;10.934;2023-03-01T02:15:35;-1.20;71.80
26707;DHT22;14319;49.422;10.934;2023-03-01T02:17:37;-1.10;71.70
26707;DHT22;14319;49.422;10.934;2023-03-01T02:20:11;-1.20;71.20
26707;DHT22;14319;49.422;10.934;2023-03-01T02:24:32;-1.30;71.50
26707;DHT22;14319;49.422;10.934;2023-03-01T02:26:40;-1.40;71.30
26707;DHT22;14319;49.422;10.934;2023-03-01T02:28:43;-1.40;71.90
26707;DHT22;14319;49.422;10.934;2023-03-01T02:30:48;-1.40;72.40
26707;DHT22;14319;49.422;10.934;2023-03-01T02:33:08;-1.40;72.10
26707;DHT22;14319;49.422;10.934;2023-03-01T02:35:14;-1.50;71.70
26707;DHT22;14319;49.422;10.934;2023-03-01T02:37:16;-1.50;71.50
26707;DHT22;14319;49.422;10.934;2023-03-01T02:39:59;-1.60;71.50
26707;DHT22;14319;49.422;10.934;2023-03-01T02:42:04;-1.60;71.70
26707;DHT22;14319;49.422;10.934;2023-03-01T02:44:05;-1.60;71.90
26707;DHT22;14319;49.422;10.934;2023-03-01T02:46:16;-1.70;72.20
26707;DHT22;14319;49.422;10.934;2023-03-01T02:48:18;-1.70;72.30
26707;DHT22;14319;49.422;10.934;2023-03-01T02:55:14;-1.80;72.40
26707;DHT22;14319;49.422;10.934;2023-03-01T02:57:16;-1.80;72.30
26707;DHT22;14319;49.422;10.934;2023-03-01T02:59:20;-1.70;72.40
26707;DHT22;14319;49.422;10.934;2023-03-01T03:01:21;-1.80;72.40
26707;DHT22;14319;49.422;10.934;2023-03-01T03:03:22;-1.80;72.60
26707;DHT22;14319;49.422;10.934;2023-03-01T03:05:28;-1.80;72.90
26707;DHT22;14319;49.422;10.934;2023-03-01T03:07:33;-1.80;72.80
26707;DHT22;14319;49.422;10.934;2023-03-01T03:09:34;-1.70;72.60
26707;DHT22;14319;49.422;10.934;2023-03-01T03:11:35;-1.70;72.70
26707;DHT22;14319;49.422;10.934;2023-03-01T03:13:37;-1.70;72.60
26707;DHT22;14319;49.422;10.934;2023-03-01T03:15:38;-1.80;72.70
26707;DHT22;14319;49.422;10.934;2023-03-01T03:17:41;-1.70;72.60
26707;DHT22;14319;49.422;10.934;2023-03-01T03:19:42;-1.70;72.20
26707;DHT22;14319;49.422;10.934;2023-03-01T03:21:45;-1.80;72.20
26707;DHT22;14319;49.422;10.934;2023-03-01T03:23:46;-1.80;72.30
26707;DHT22;14319;49.422;10.934;2023-03-01T03:25:50;-1.90;72.60
26707;DHT22;14319;49.422;10.934;2023-03-01T03:27:52;-1.90;72.90
26707;DHT22;14319;49.422;10.934;2023-03-01T03:29:56;-1.80;72.60
26707;DHT22;14319;49.422;10.934;2023-03-01T03:31:57;-1.80;72.90
26707;DHT22;14319;49.422;10.934;2023-03-01T03:33:58;-1.80;72.70
26707;DHT22;14319;49.422;10.934;2023-03-01T03:36:02;-1.70;72.80
26707;DHT22;14319;49.422;10.934;2023-03-01T03:38:06;-1.90;72.70
26707;DHT22;14319;49.422;10.934;2023-03-01T03:40:10;-2.00;73.20
26707;DHT22;14319;49.422;10.934;2023-03-01T03:42:15;-2.00;73.20
26707;DHT22;14319;49.422;10.934;2023-03-01T03:44:19;-2.00;73.20
26707;DHT22;14319;49.422;10.934;2023-03-01T03:46:20;-1.90;73.10
26707;DHT22;14319;49.422;10.934;2023-03-01T03:48:30;-2.00;73.00
26707;DHT22;14319;49.422;10.934;2023-03-01T03:50:31;-2.00;73.10
26707;DHT22;14319;49.422;10.934;2023-03-01T03:52:32;-2.00;73.10
26707;DHT22;14319;49.422;10.934;2023-03-01T03:54:32;-2.00;73.10
26707;DHT22;14319;49.422;10.934;2023-03-01T03:56:33;-2.10;73.40
26707;DHT22;14319;49.422;10.934;2023-03-01T03:58:33;-2.10;73.80
26707;DHT22;14319;49.422;10.934;2023-03-01T04:00:40;-2.20;73.80
26707;DHT22;14319;49.422;10.934;2023-03-01T04:02:44;-2.20;74.30
26707;DHT22;14319;49.422;10.934;2023-03-01T04:04:45;-2.20;74.20
26707;DHT22;14319;49.422;10.934;2023-03-01T04:06:46;-2.20;74.20
26707;DHT22;14319;49.422;10.934;2023-03-01T04:08:48;-2.10;74.00
26707;DHT22;14319;49.422;10.934;2023-03-01T04:10:55;-2.20;74.00
26707;DHT22;14319;49.422;10.934;2023-03-01T04:12:57;-2.30;74.20
26707;DHT22;14319;49.422;10.934;2023-03-01T04:14:57;-2.30;74.50
26707;DHT22;14319;49.422;10.934;2023-03-01T04:16:58;-2.30;74.50
26707;DHT22;14319;49.422;10.934;2023-03-01T04:18:58;-2.10;74.50
26707;DHT22;14319;49.422;10.934;2023-03-01T04:21:00;-1.90;73.80
26707;DHT22;14319;49.422;10.934;2023-03-01T04:23:05;-1.70;73.20
26707;DHT22;14319;49.422;10.934;2023-03-01T04:25:13;-1.60;72.60
26707;DHT22;14319;49.422;10.934;2023-03-01T04:27:14;-1.50;72.20
26707;DHT22;14319;49.422;10.934;2023-03-01T04:29:15;-1.50;71.60
26707;DHT22;14319;49.422;10.934;2023-03-01T04:31:18;-1.50;71.30
26707;DHT22;14319;49.422;10.934;2023-03-01T04:33:21;-1.40;71.40
26707;DHT22;14319;49.422;10.934;2023-03-01T04:35:22;-1.30;70.20
26707;DHT22;14319;49.422;10.934;2023-03-01T04:37:23;-1.30;70.20
26707;DHT22;14319;49.422;10.934;2023-03-01T04:39:24;-1.20;70.30
26707;DHT22;14319;49.422;10.934;2023-03-01T04:41:25;-1.30;70.60
26707;DHT22;14319;49.422;10.934;2023-03-01T04:43:26;-1.20;70.00
26707;DHT22;14319;49.422;10.934;2023-03-01T04:45:26;-1.10;69.50
26707;DHT22;14319;49.422;10.934;2023-03-01T04:47:28;-1.10;69.30
26707;DHT22;14319;49.422;10.934;2023-03-01T04:49:28;-1.10;69.30
26707;DHT22;14319;49.422;10.934;2023-03-01T04:51:31;-1.10;69.00
26707;DHT22;14319;49.422;10.934;2023-03-01T04:53:35;-1.10;69.50
26707;DHT22;14319;49.422;10.934;2023-03-01T04:55:38;-1.10;69.30
26707;DHT22;14319;49.422;10.934;2023-03-01T04:57:39;-1.10;68.60
26707;DHT22;14319;49.422;10.934;2023-03-01T04:59:40;-1.10;69.30
26707;DHT22;14319;49.422;10.934;2023-03-01T05:01:40;-1.10;69.00
26707;DHT22;14319;49.422;10.934;2023-03-01T05:03:44;-1.20;68.60
26707;DHT22;14319;49.422;10.934;2023-03-01T05:05:46;-1.10;69.20
26707;DHT22;14319;49.422;10.934;2023-03-01T05:07:47;-1.00;69.00
26707;DHT22;14319;49.422;10.934;2023-03-01T05:09:48;-1.20;69.00
26707;DHT22;14319;49.422;10.934;2023-03-01T05:11:49;-1.10;68.70
26707;DHT22;14319;49.422;10.934;2023-03-01T05:13:50;-1.20;68.70
26707;DHT22;14319;49.422;10.934;2023-03-01T05:15:58;-1.10;68.80
26707;DHT22;14319;49.422;10.934;2023-03-01T05:17:59;-1.10;68.50
26707;DHT22;14319;49.422;10.934;2023-03-01T05:20:00;-1.10;68.40
26707;DHT22;14319;49.422;10.934;2023-03-01T05:22:01;-1.00;68.30
26707;DHT22;14319;49.422;10.934;2023-03-01T05:24:02;-1.20;68.10
26707;DHT22;14319;49.422;10.934;2023-03-01T05:26:04;-1.20;68.90
26707;DHT22;14319;49.422;10.934;2023-03-01T05:28:09;-1.30;69.30
26707;DHT22;14319;49.422;10.934;2023-03-01T05:30:11;-1.30;69.40
26707;DHT22;14319;49.422;10.934;2023-03-01T05:32:14;-1.20;68.90
26707;DHT22;14319;49.422;10.934;2023-03-01T05:34:16;-1.30;68.90
26707;DHT22;14319;49.422;10.934;2023-03-01T05:36:16;-1.00;68.10
26707;DHT22;14319;49.422;10.934;2023-03-01T05:38:19;-0.90;67.60
26707;DHT22;14319;49.422;10.934;2023-03-01T05:40:22;-0.90;67.30
26707;DHT22;14319;49.422;10.934;2023-03-01T05:42:24;-0.90;67.90
26707;DHT22;14319;49.422;10.934;2023-03-01T05:44:25;-0.90;67.00
26707;DHT22;14319;49.422;10.934;2023-03-01T05:46:26;-0.90;66.90
26707;DHT22;14319;49.422;10.934;2023-03-01T05:48:26;-1.00;67.20
26707;DHT22;14319;49.422;10.934;2023-03-01T05:50:29;-1.00;67.50
26707;DHT22;14319;49.422;10.934;2023-03-01T05:52:30;-1.10;67.70
26707;DHT22;14319;49.422;10.934;2023-03-01T05:54:30;-1.10;68.00
26707;DHT22;14319;49.422;10.934;2023-03-01T05:56:33;-1.10;68.00
26707;DHT22;14319;49.422;10.934;2023-03-01T05:58:34;-1.10;68.20
26707;DHT22;14319;49.422;10.934;2023-03-01T06:00:35;-1.10;68.20
26707;DHT22;14319;49.422;10.934;2023-03-01T06:02:35;-1.10;68.10
26707;DHT22;14319;49.422;10.934;2023-03-01T06:04:36;-1.10;68.20
26707;DHT22;14319;49.422;10.934;2023-03-01T06:06:37;-1.10;68.10
26707;DHT22;14319;49.422;10.934;2023-03-01T06:08:38;-1.10;68.20
26707;DHT22;14319;49.422;10.934;2023-03-01T06:10:39;-1.20;67.90
26707;DHT22;14319;49.422;10.934;2023-03-01T06:12:41;-1.10;68.00
26707;DHT22;14319;49.422;10.934;2023-03-01T06:14:42;-1.00;67.70
26707;DHT22;14319;49.422;10.934;2023-03-01T06:16:42;-1.00;67.50
26707;DHT22;14319;49.422;10.934;2023-03-01T06:18:43;-1.00;67.50
26707;DHT22;14319;49.422;10.934;2023-03-01T06:20:44;-1.10;67.70
26707;DHT22;14319;49.422;10.934;2023-03-01T06:22:44;-1.10;68.40
26707;DHT22;14319;49.422;10.934;2023-03-01T06:24:45;-1.10;68.00
26707;DHT22;14319;49.422;10.934;2023-03-01T06:26:46;-1.10;68.10
26707;DHT22;14319;49.422;10.934;2023-03-01T06:28:46;-1.10;68.20
26707;DHT22;14319;49.422;10.934;2023-03-01T06:30:47;-1.10;68.50
26707;DHT22;14319;49.422;10.934;2023-03-01T06:32:48;-1.10;68.10
26707;DHT22;14319;49.422;10.934;2023-03-01T06:34:49;-1.10;68.00
26707;DHT22;14319;49.422;10.934;2023-03-01T06:36:50;-1.20;68.20
26707;DHT22;14319;49.422;10.934;2023-03-01T06:38:50;-1.00;67.90
26707;DHT22;14319;49.422;10.934;2023-03-01T06:40:52;-1.00;67.80
26707;DHT22;14319;49.422;10.934;2023-03-01T06:42:54;-1.00;68.00
26707;DHT22;14319;49.422;10.934;2023-03-01T06:44:55;-1.00;68.10
26707;DHT22;14319;49.422;10.934;2023-03-01T06:46:55;-1.00;68.10
26707;DHT22;14319;49.422;10.934;2023-03-01T06:48:56;-1.00;68.10
26707;DHT22;14319;49.422;10.934;2023-03-01T06:51:00;-0.90;68.00
26707;DHT22;14319;49.422;10.934;2023-03-01T06:53:01;-0.80;67.50
26707;DHT22;14319;49.422;10.934;2023-03-01T06:55:02;-0.80;67.30
26707;DHT22;14319;49.422;10.934;2023-03-01T06:57:03;-0.70;67.40
26707;DHT22;14319;49.422;10.934;2023-03-01T06:59:03;-0.80;67.50
26707;DHT22;14319;49.422;10.934;2023-03-01T07:01:07;-0.80;67.60
26707;DHT22;14319;49.422;10.934;2023-03-01T07:03:08;-0.80;67.80
26707;DHT22;14319;49.422;10.934;2023-03-01T07:05:09;-0.80;68.00
26707;DHT22;14319;49.422;10.934;2023-03-01T07:07:10;-0.80;68.10
26707;DHT22;14319;49.422;10.934;2023-03-01T07:09:11;-0.80;68.30
26707;DHT22;14319;49.422;10.934;2023-03-01T07:11:11;-0.80;68.90
26707;DHT22;14319;49.422;10.934;2023-03-01T07:13:12;-0.80;68.50
26707;DHT22;14319;49.422;10.934;2023-03-01T07:15:13;-0.70;67.90
26707;DHT22;14319;49.422;10.934;2023-03-01T07:17:15;-0.80;68.40
26707;DHT22;14319;49.422;10.934;2023-03-01T07:19:16;-0.70;68.40
26707;DHT22;14319;49.422;10.934;2023-03-01T07:21:16;-0.70;68.30
26707;DHT22;14319;49.422;10.934;2023-03-01T07:23:17;-0.80;69.20
26707;DHT22;14319;49.422;10.934;2023-03-01T07:25:17;-0.70;68.90
26707;DHT22;14319;49.422;10.934;2023-03-01T07:27:18;-0.70;69.30
26707;DHT22;14319;49.422;10.934;2023-03-01T07:29:19;-0.70;69.20
26707;DHT22;14319;49.422;10.934;2023-03-01T07:31:20;-0.60;69.50
26707;DHT22;14319;49.422;10.934;2023-03-01T07:33:20;-0.60;69.50
26707;DHT22;14319;49.422;10.934;2023-03-01T07:35:22;-0.60;69.90
26707;DHT22;14319;49.422;10.934;2023-03-01T07:37:23;-0.50;69.20
26707;DHT22;14319;49.422;10.934;2023-03-01T07:39:23;-0.60;68.30
26707;DHT22;14319;49.422;10.934;2023-03-01T07:41:24;-0.50;69.00
26707;DHT22;14319;49.422;10.934;2023-03-01T07:43:25;-0.50;69.40
26707;DHT22;14319;49.422;10.934;2023-03-01T07:45:25;-0.40;69.10
26707;DHT22;14319;49.422;10.934;2023-03-01T07:47:26;-0.40;69.00
26707;DHT22;14319;49.422;10.934;2023-03-01T07:49:27;-0.30;69.10
26707;DHT22;14319;49.422;10.934;2023-03-01T07:51:27;-0.30;68.00
26707;DHT22;14319;49.422;10.934;2023-03-01T07:53:28;-0.10;67.20
26707;DHT22;14319;49.422;10.934;2023-03-01T07:55:29;0.00;66.40
26707;DHT22;14319;49.422;10.934;2023-03-01T07:57:29;0.00;66.90
26707;DHT22;14319;49.422;10.934;2023-03-01T07:59:30;0.00;67.40
26707;DHT22;14319;49.422;10.934;2023-03-01T08:01:31;0.10;67.10
26707;DHT22;14319;49.422;10.934;2023-03-01T08:03:32;0.10;67.40
26707;DHT22;14319;49.422;10.934;2023-03-01T08:05:33;0.10;67.30
26707;DHT22;14319;49.422;10.934;2023-03-01T08:07:34;0.20;66.80
26707;DHT22;14319;49.422;10.934;2023-03-01T08:09:35;0.10;67.50
26707;DHT22;14319;49.422;10.934;2023-03-01T08:11:37;0.10;67.30
26707;DHT22;14319;49.422;10.934;2023-03-01T08:13:37;0.30;67.80
26707;DHT22;14319;49.422;10.934;2023-03-01T08:15:38;0.30;66.60
26707;DHT22;14319;49.422;10.934;2023-03-01T08:17:39;0.40;65.90
26707;DHT22;14319;49.422;10.934;2023-03-01T08:19:39;0.50;66.00
26707;DHT22;14319;49.422;10.934;2023-03-01T08:21:40;0.50;65.70
26707;DHT22;14319;49.422;10.934;2023-03-01T08:23:41;0.50;65.50
26707;DHT22;14319;49.422;10.934;2023-03-01T08:25:42;0.60;65.60
26707;DHT22;14319;49.422;10.934;2023-03-01T08:27:42;0.70;64.20
26707;DHT22;14319;49.422;10.934;2023-03-01T08:29:43;0.80;64.10
26707;DHT22;14319;49.422;10.934;2023-03-01T08:31:44;0.80;65.10
26707;DHT22;14319;49.422;10.934;2023-03-01T08:33:45;0.80;63.60
26707;DHT22;14319;49.422;10.934;2023-03-01T08:35:50;0.90;63.10
26707;DHT22;14319;49.422;10.934;2023-03-01T08:37:54;0.90;62.90
26707;DHT22;14319;49.422;10.934;2023-03-01T08:39:54;1.00;63.20
26707;DHT22;14319;49.422;10.934;2023-03-01T08:41:55;0.90;63.40
26707;DHT22;14319;49.422;10.934;2023-03-01T08:43:56;1.00;63.70
26707;DHT22;14319;49.422;10.934;2023-03-01T08:46:00;1.00;63.30
26707;DHT22;14319;49.422;10.934;2023-03-01T08:48:00;1.10;63.00
26707;DHT22;14319;49.422;10.934;2023-03-01T08:50:01;1.20;62.20
26707;DHT22;14319;49.422;10.934;2023-03-01T08:52:02;1.30;61.50
26707;DHT22;14319;49.422;10.934;2023-03-01T08:54:11;1.40;60.90
26707;DHT22;14319;49.422;10.934;2023-03-01T08:56:12;1.40;60.80
26707;DHT22;14319;49.422;10.934;2023-03-01T08:58:13;1.30;61.80
26707;DHT22;14319;49.422;10.934;2023-03-01T09:00:14;1.30;61.90
26707;DHT22;14319;49.422;10.934;2023-03-01T09:02:17;1.40;61.70
26707;DHT22;14319;49.422;10.934;2023-03-01T09:04:18;1.50;60.80
26707;DHT22;14319;49.422;10.934;2023-03-01T09:06:19;1.50;60.40
26707;DHT22;14319;49.422;10.934;2023-03-01T09:08:20;1.40;60.90
26707;DHT22;14319;49.422;10.934;2023-03-01T09:10:20;1.50;62.30
26707;DHT22;14319;49.422;10.934;2023-03-01T09:12:21;1.60;60.50
26707;DHT22;14319;49.422;10.934;2023-03-01T09:14:22;1.70;60.40
26707;DHT22;14319;49.422;10.934;2023-03-01T09:16:23;1.70;60.00
26707;DHT22;14319;49.422;10.934;2023-03-01T09:18:24;1.80;61.90
26707;DHT22;14319;49.422;10.934;2023-03-01T09:20:24;1.80;60.40
26707;DHT22;14319;49.422;10.934;2023-03-01T09:22:25;1.80;60.40
26707;DHT22;14319;49.422;10.934;2023-03-01T09:24:26;1.90;60.20
26707;DHT22;14319;49.422;10.934;2023-03-01T09:26:26;1.90;59.30
26707;DHT22;14319;49.422;10.934;2023-03-01T09:28:27;1.90;59.70
26707;DHT22;14319;49.422;10.934;2023-03-01T09:30:27;1.90;60.00
26707;DHT22;14319;49.422;10.934;2023-03-01T09:32:30;2.00;59.10
26707;DHT22;14319;49.422;10.934;2023-03-01T09:34:31;2.30;59.10
26707;DHT22;14319;49.422;10.934;2023-03-01T09:36:31;2.30;58.80
26707;DHT22;14319;49.422;10.934;2023-03-01T09:38:32;2.20;58.80
26707;DHT22;14319;49.422;10.934;2023-03-01T09:40:33;2.20;59.20
26707;DHT22;14319;49.422;10.934;2023-03-01T09:42:34;2.20;59.70
26707;DHT22;14319;49.422;10.934;2023-03-01T09:47:00;2.60;57.30
26707;DHT22;14319;49.422;10.934;2023-03-01T09:49:05;2.70;57.50
26707;DHT22;14319;49.422;10.934;2023-03-01T09:51:18;2.50;58.10
26707;DHT22;14319;49.422;10.934;2023-03-01T09:53:22;2.60;58.30
26707;DHT22;14319;49.422;10.934;2023-03-01T09:55:34;2.60;58.20
26707;DHT22;14319;49.422;10.934;2023-03-01T09:57:44;2.70;57.40
26707;DHT22;14319;49.422;10.934;2023-03-01T10:00:03;2.70;57.20
26707;DHT22;14319;49.422;10.934;2023-03-01T10:02:28;2.70;57.70
26707;DHT22;14319;49.422;10.934;2023-03-01T10:05:12;3.10;55.50
26707;DHT22;14319;49.422;10.934;2023-03-01T10:07:14;3.10;56.30
26707;DHT22;14319;49.422;10.934;2023-03-01T10:09:19;3.00;56.80
26707;DHT22;14319;49.422;10.934;2023-03-01T10:11:28;3.10;56.60
26707;DHT22;14319;49.422;10.934;2023-03-01T10:13:46;3.20;55.70
26707;DHT22;14319;49.422;10.934;2023-03-01T10:15:54;3.20;56.00
26707;DHT22;14319;49.422;10.934;2023-03-01T10:18:00;3.20;56.20
26707;DHT22;14319;49.422;10.934;2023-03-01T10:20:24;3.30;56.70
26707;DHT22;14319;49.422;10.934;2023-03-01T10:22:28;3.20;56.20
26707;DHT22;14319;49.422;10.934;2023-03-01T10:24:31;3.40;55.90
26707;DHT22;14319;49.422;10.934;2023-03-01T10:26:56;3.40;55.50
26707;DHT22;14319;49.422;10.934;2023-03-01T10:29:06;3.40;55.20
26707;DHT22;14319;49.422;10.934;2023-03-01T10:31:17;3.40;55.90
26707;DHT22;14319;49.422;10.934;2023-03-01T10:33:32;3.30;55.70
26707;DHT22;14319;49.422;10.934;2023-03-01T10:35:34;3.20;54.90
26707;DHT22;14319;49.422;10.934;2023-03-01T10:40:09;3.40;54.60
26707;DHT22;14319;49.422;10.934;2023-03-01T10:42:25;3.40;54.20
26707;DHT22;14319;49.422;10.934;2023-03-01T10:46:37;3.60;53.60
26707;DHT22;14319;49.422;10.934;2023-03-01T10:48:38;3.70;53.40
26707;DHT22;14319;49.422;10.934;2023-03-01T10:50:40;3.80;53.40
26707;DHT22;14319;49.422;10.934;2023-03-01T10:52:41;3.80;53.20
26707;DHT22;14319;49.422;10.934;2023-03-01T10:55:04;3.90;54.20
26707;DHT22;14319;49.422;10.934;2023-03-01T10:57:38;3.80;53.70
26707;DHT22;14319;49.422;10.934;2023-03-01T10:59:41;3.80;54.50
26707;DHT22;14319;49.422;10.934;2023-03-01T11:01:42;3.80;54.70
26707;DHT22;14319;49.422;10.934;2023-03-01T11:03:43;3.90;54.20
26707;DHT22;14319;49.422;10.934;2023-03-01T11:08:00;3.90;54.20
26707;DHT22;14319;49.422;10.934;2023-03-01T11:10:11;4.00;53.50
26707;DHT22;14319;49.422;10.934;2023-03-01T11:12:14;3.90;52.70
26707;DHT22;14319;49.422;10.934;2023-03-01T11:14:18;4.10;52.60
26707;DHT22;14319;49.422;10.934;2023-03-01T11:16:32;4.20;53.70
26707;DHT22;14319;49.422;10.934;2023-03-01T11:18:34;4.20;53.30
26707;DHT22;14319;49.422;10.934;2023-03-01T11:20:35;4.30;52.00
26707;DHT22;14319;49.422;10.934;2023-03-01T11:22:36;4.30;53.00
26707;DHT22;14319;49.422;10.934;2023-03-01T11:24:49;4.30;52.70
26707;DHT22;14319;49.422;10.934;2023-03-01T11:26:54;4.20;53.00
26707;DHT22;14319;49.422;10.934;2023-03-01T11:28:59;4.20;52.60
26707;DHT22;14319;49.422;10.934;2023-03-01T11:31:08;4.40;53.20
26707;DHT22;14319;49.422;10.934;2023-03-01T11:33:32;4.30;53.20
26707;DHT22;14319;49.422;10.934;2023-03-01T11:35:42;4.40;52.90
26707;DHT22;14319;49.422;10.934;2023-03-01T11:40:13;4.70;51.50
26707;DHT22;14319;49.422;10.934;2023-03-01T11:42:19;4.70;51.60
26707;DHT22;14319;49.422;10.934;2023-03-01T11:44:25;4.80;51.60
26707;DHT22;14319;49.422;10.934;2023-03-01T11:51:07;4.90;51.90
26707;DHT22;14319;49.422;10.934;2023-03-01T11:55:34;5.10;50.30
26707;DHT22;14319;49.422;10.934;2023-03-01T12:03:17;5.20;50.20
26707;DHT22;14319;49.422;10.934;2023-03-01T12:05:16;5.30;49.90
26707;DHT22;14319;49.422;10.934;2023-03-01T12:07:32;5.30;50.20
26707;DHT22;14319;49.422;10.934;2023-03-01T12:12:52;5.30;51.40
26707;DHT22;14319;49.422;10.934;2023-03-01T12:20:20;5.50;50.00
26707;DHT22;14319;49.422;10.934;2023-03-01T12:29:25;5.90;49.40
26707;DHT22;14319;49.422;10.934;2023-03-01T12:36:17;5.90;51.80
26707;DHT22;14319;49.422;10.934;2023-03-01T12:38:37;6.00;50.90
26707;DHT22;14319;49.422;10.934;2023-03-01T12:41:02;6.00;49.40
26707;DHT22;14319;49.422;10.934;2023-03-01T12:45:40;6.10;49.40
26707;DHT22;14319;49.422;10.934;2023-03-01T12:50:28;6.10;49.00
26707;DHT22;14319;49.422;10.934;2023-03-01T12:52:40;6.20;48.70
26707;DHT22;14319;49.422;10.934;2023-03-01T12:54:43;6.40;48.60
26707;DHT22;14319;49.422;10.934;2023-03-01T12:56:45;6.40;49.40
26707;DHT22;14319;49.422;10.934;2023-03-01T13:04:05;6.40;48.80
26707;DHT22;14319;49.422;10.934;2023-03-01T13:09:04;6.50;49.10
26707;DHT22;14319;49.422;10.934;2023-03-01T13:11:19;6.70;49.70
26707;DHT22;14319;49.422;10.934;2023-03-01T13:13:25;6.70;49.20
26707;DHT22;14319;49.422;10.934;2023-03-01T13:15:35;6.80;49.00
26707;DHT22;14319;49.422;10.934;2023-03-01T13:17:44;6.70;49.10
26707;DHT22;14319;49.422;10.934;2023-03-01T13:19:57;6.60;49.00
26707;DHT22;14319;49.422;10.934;2023-03-01T13:21:58;6.70;49.30
26707;DHT22;14319;49.422;10.934;2023-03-01T13:23:59;6.80;49.20
26707;DHT22;14319;49.422;10.934;2023-03-01T13:32:37;6.90;51.20
26707;DHT22;14319;49.422;10.934;2023-03-01T13:34:48;6.90;50.50
26707;DHT22;14319;49.422;10.934;2023-03-01T13:36:49;6.90;50.10
26707;DHT22;14319;49.422;10.934;2023-03-01T13:39:31;6.90;50.30
26707;DHT22;14319;49.422;10.934;2023-03-01T13:43:42;7.30;50.30
26707;DHT22;14319;49.422;10.934;2023-03-01T13:45:43;7.40;49.20
26707;DHT22;14319;49.422;10.934;2023-03-01T13:47:45;7.40;48.10
26707;DHT22;14319;49.422;10.934;2023-03-01T13:51:53;7.40;49.30
26707;DHT22;14319;49.422;10.934;2023-03-01T13:53:55;7.30;49.90
26707;DHT22;14319;49.422;10.934;2023-03-01T13:56:12;7.30;49.70
26707;DHT22;14319;49.422;10.934;2023-03-01T13:58:29;7.20;49.60
26707;DHT22;14319;49.422;10.934;2023-03-01T14:00:36;7.30;50.70
26707;DHT22;14319;49.422;10.934;2023-03-01T14:02:37;7.30;49.80
26707;DHT22;14319;49.422;10.934;2023-03-01T14:04:38;7.30;50.30
26707;DHT22;14319;49.422;10.934;2023-03-01T14:06:40;7.50;50.60
26707;DHT22;14319;49.422;10.934;2023-03-01T14:08:42;7.60;49.20
26707;DHT22;14319;49.422;10.934;2023-03-01T14:10:53;7.50;50.40
26707;DHT22;14319;49.422;10.934;2023-03-01T14:18:06;7.50;51.60